createdAt,value
2023-01-19T00:01:04.039Z,100.00
2023-01-19T00:02:10.328Z,100.00
2023-01-19T00:03:19.833Z,100.00
2023-01-19T00:04:31.801Z,100.00
2023-01-19T00:05:36.706Z,100.00
2023-01-19T00:06:52.858Z,100.00
2023-01-19T00:07:56.337Z,100.00
2023-01-19T00:09:10.916Z,100.00
2023-01-19T00:10:17.607Z,100.00
2023-01-19T00:11:28.615Z,100.00
2023-01-19T00:12:31.971Z,100.00
2023-01-19T00:13:50.006Z,100.00
2023-01-19T00:15:00.372Z,100.00
2023-01-19T00:16:15.463Z,100.00
2023-01-19T00:17:23.928Z,100.00
2023-01-19T00:18:26.982Z,100.00
2023-01-19T00:19:37.132Z,100.00
2023-01-19T00:20:45.834Z,100.00
2023-01-19T00:21:52.733Z,100.00
2023-01-19T00:22:55.486Z,100.00
2023-01-19T00:24:09.259Z,100.00
2023-01-19T00:25:19.507Z,100.00
2023-01-19T00:26:33.478Z,100.00
2023-01-19T00:27:43.346Z,100.00
2023-01-19T00:28:58.452Z,100.00
2023-01-19T00:30:09.453Z,100.00
2023-01-19T00:31:23.713Z,100.00
2023-01-19T00:32:27.147Z,100.00
2023-01-19T00:33:44.492Z,100.00
2023-01-19T00:34:52.818Z,100.00
2023-01-19T00:36:00.590Z,100.00
2023-01-19T00:37:03.655Z,100.00
2023-01-19T00:38:18.627Z,100.00
2023-01-19T00:39:25.094Z,100.00
2023-01-19T00:40:36.463Z,100.00
2023-01-19T00:41:54.261Z,100.00
2023-01-19T00:43:03.672Z,100.00
2023-01-19T00:44:09.346Z,100.00
2023-01-19T00:45:29.877Z,100.00
2023-01-19T00:46:42.757Z,100.00
2023-01-19T00:47:49.879Z,100.00
2023-01-19T00:48:56.987Z,100.00
2023-01-19T00:50:07.054Z,100.00
2023-01-19T00:51:17.009Z,100.00
2023-01-19T00:52:34.759Z,100.00
2023-01-19T00:53:43.803Z,100.00
2023-01-19T00:54:58.000Z,100.00
2023-01-19T00:56:08.738Z,100.00
2023-01-19T00:57:14.244Z,100.00
2023-01-19T00:58:20.234Z,100.00
2023-01-19T00:59:31.309Z,100.00
2023-01-19T01:00:44.398Z,100.00
2023-01-19T01:01:51.437Z,100.00
2023-01-19T01:03:04.440Z,100.00
2023-01-19T01:04:07.636Z,100.00
2023-01-19T01:05:18.222Z,100.00
2023-01-19T01:06:26.248Z,100.00
2023-01-19T01:07:43.404Z,100.00
2023-01-19T01:08:50.037Z,100.00
2023-01-19T01:10:03.943Z,100.00
2023-01-19T01:11:12.060Z,100.00
2023-01-19T01:12:17.498Z,100.00
2023-01-19T01:13:28.044Z,100.00
2023-01-19T01:14:33.692Z,100.00
2023-01-19T01:15:39.233Z,100.00
2023-01-19T01:16:42.113Z,100.00
2023-01-19T01:17:55.705Z,100.00
2023-01-19T01:19:09.364Z,100.00
2023-01-19T01:20:22.391Z,100.00
2023-01-19T01:21:27.126Z,100.00
2023-01-19T01:22:32.867Z,100.00
2023-01-19T01:23:50.393Z,100.00
2023-01-19T01:24:57.439Z,100.00
2023-01-19T01:26:05.954Z,100.00
2023-01-19T01:27:12.100Z,100.00
2023-01-19T01:28:20.705Z,100.00
2023-01-19T01:29:23.997Z,100.00
2023-01-19T01:30:37.110Z,100.00
2023-01-19T01:31:45.895Z,100.00
2023-01-19T01:32:59.254Z,100.00
2023-01-19T01:34:05.973Z,100.00
2023-01-19T01:35:17.218Z,100.00
2023-01-19T01:36:25.201Z,100.00
2023-01-19T01:37:33.557Z,100.00
2023-01-19T01:38:39.047Z,100.00
2023-01-19T01:39:52.013Z,100.00
2023-01-19T01:41:08.006Z,100.00
2023-01-19T01:43:22.241Z,100.00
2023-01-19T01:44:49.895Z,100.00
2023-01-19T01:45:55.562Z,100.00
2023-01-19T01:46:57.572Z,100.00
2023-01-19T01:48:08.791Z,100.00
2023-01-19T01:49:16.227Z,100.00
2023-01-19T01:50:24.477Z,100.00
2023-01-19T01:51:29.920Z,100.00
2023-01-19T01:52:36.419Z,100.00
2023-01-19T01:53:39.789Z,100.00
2023-01-19T01:54:45.743Z,100.00
2023-01-19T01:55:49.813Z,100.00
2023-01-19T01:57:02.234Z,100.00
2023-01-19T01:58:06.274Z,100.00
2023-01-19T01:59:26.240Z,100.00
2023-01-19T02:00:49.897Z,100.00
2023-01-19T02:02:07.934Z,100.00
2023-01-19T02:03:12.665Z,100.00
2023-01-19T02:04:14.977Z,100.00
2023-01-19T02:05:24.242Z,100.00
2023-01-19T02:06:26.721Z,100.00
2023-01-19T02:07:50.325Z,100.00
2023-01-19T02:09:11.029Z,100.00
2023-01-19T02:10:28.133Z,100.00
2023-01-19T02:11:46.139Z,100.00
2023-01-19T02:13:06.336Z,100.00
2023-01-19T02:14:11.196Z,100.00
2023-01-19T02:15:18.021Z,100.00
2023-01-19T02:16:22.756Z,100.00
2023-01-19T02:17:24.944Z,100.00
2023-01-19T02:18:32.177Z,100.00
2023-01-19T02:19:41.039Z,100.00
2023-01-19T02:20:53.782Z,100.00
2023-01-19T02:22:02.295Z,100.00
2023-01-19T02:23:12.227Z,100.00
2023-01-19T02:24:17.517Z,100.00
2023-01-19T02:25:23.033Z,100.00
2023-01-19T02:26:28.486Z,100.00
2023-01-19T02:27:34.257Z,100.00
2023-01-19T02:28:39.269Z,100.00
2023-01-19T02:29:44.216Z,100.00
2023-01-19T02:30:46.438Z,100.00
2023-01-19T02:31:51.192Z,100.00
2023-01-19T02:32:53.328Z,100.00
2023-01-19T02:33:58.483Z,100.00
2023-01-19T02:35:00.608Z,100.00
2023-01-19T02:36:05.815Z,100.00
2023-01-19T02:37:12.338Z,100.00
2023-01-19T02:38:19.190Z,100.00
2023-01-19T02:39:32.074Z,100.00
2023-01-19T02:40:38.679Z,100.00
2023-01-19T02:41:45.569Z,100.00
2023-01-19T02:42:53.120Z,100.00
2023-01-19T02:43:57.493Z,100.00
2023-01-19T02:45:06.709Z,100.00
2023-01-19T02:46:11.593Z,100.00
2023-01-19T02:47:14.172Z,100.00
2023-01-19T02:48:19.735Z,100.00
2023-01-19T02:49:21.875Z,100.00
2023-01-19T02:50:50.128Z,100.00
2023-01-19T02:51:52.502Z,100.00
2023-01-19T02:53:03.930Z,100.00
2023-01-19T02:54:20.289Z,100.00
2023-01-19T02:55:30.095Z,100.00
2023-01-19T02:56:46.425Z,100.00
2023-01-19T02:57:59.738Z,100.00
2023-01-19T02:59:09.598Z,100.00
2023-01-19T03:00:32.666Z,100.00
2023-01-19T03:01:50.761Z,100.00
2023-01-19T03:03:10.633Z,100.00
2023-01-19T03:04:27.600Z,100.00
2023-01-19T03:05:44.473Z,100.00
2023-01-19T03:06:55.338Z,100.00
2023-01-19T03:08:04.468Z,100.00
2023-01-19T03:09:17.942Z,100.00
2023-01-19T03:10:31.821Z,100.00
2023-01-19T03:11:40.050Z,100.00
2023-01-19T03:12:47.219Z,100.00
2023-01-19T03:13:55.656Z,100.00
2023-01-19T03:15:02.592Z,100.00
2023-01-19T03:16:14.757Z,100.00
2023-01-19T03:17:18.288Z,100.00
2023-01-19T03:18:26.296Z,100.00
2023-01-19T03:19:34.092Z,100.00
2023-01-19T03:20:40.595Z,100.00
2023-01-19T03:21:47.287Z,100.00
2023-01-19T03:22:56.933Z,100.00
2023-01-19T03:24:02.962Z,100.00
2023-01-19T03:25:09.576Z,100.00
2023-01-19T03:26:18.261Z,100.00
2023-01-19T03:27:28.176Z,100.00
2023-01-19T03:28:30.777Z,100.00
2023-01-19T03:29:37.698Z,100.00
2023-01-19T03:30:46.046Z,100.00
2023-01-19T03:31:53.917Z,100.00
2023-01-19T03:33:04.933Z,100.00
2023-01-19T03:34:12.528Z,100.00
2023-01-19T03:35:16.738Z,100.00
2023-01-19T03:36:28.163Z,100.00
2023-01-19T03:37:32.055Z,100.00
2023-01-19T03:38:40.262Z,100.00
2023-01-19T03:39:42.778Z,100.00
2023-01-19T03:40:50.109Z,100.00
2023-01-19T03:41:58.761Z,100.00
2023-01-19T03:43:05.441Z,100.00
2023-01-19T03:44:08.096Z,100.00
2023-01-19T03:45:15.365Z,100.00
2023-01-19T03:46:19.500Z,100.00
2023-01-19T03:47:25.475Z,100.00
2023-01-19T03:48:27.582Z,100.00
2023-01-19T03:49:34.139Z,100.00
2023-01-19T03:50:36.251Z,100.00
2023-01-19T03:51:42.003Z,100.00
2023-01-19T03:52:44.606Z,100.00
2023-01-19T03:53:50.008Z,100.00
2023-01-19T03:54:52.190Z,100.00
2023-01-19T03:55:57.194Z,100.00
2023-01-19T03:57:01.802Z,100.00
2023-01-19T03:58:06.545Z,100.00
2023-01-19T03:59:08.659Z,100.00
2023-01-19T04:00:15.251Z,100.00
2023-01-19T04:01:20.824Z,100.00
2023-01-19T04:02:25.962Z,100.00
2023-01-19T04:03:28.686Z,100.00
2023-01-19T04:04:33.368Z,100.00
2023-01-19T04:05:35.474Z,100.00
2023-01-19T04:06:40.085Z,100.00
2023-01-19T04:07:42.094Z,100.00
2023-01-19T04:08:47.152Z,100.00
2023-01-19T04:09:49.168Z,100.00
2023-01-19T04:10:53.855Z,100.00
2023-01-19T04:11:57.267Z,100.00
2023-01-19T04:13:05.127Z,100.00
2023-01-19T04:14:07.300Z,100.00
2023-01-19T04:15:12.174Z,100.00
2023-01-19T04:16:14.365Z,100.00
2023-01-19T04:17:19.058Z,100.00
2023-01-19T04:18:21.096Z,100.00
2023-01-19T04:19:25.835Z,100.00
2023-01-19T04:20:29.250Z,100.00
2023-01-19T04:21:33.873Z,100.00
2023-01-19T04:22:36.008Z,100.00
2023-01-19T04:23:40.609Z,100.00
2023-01-19T04:24:42.618Z,100.00
2023-01-19T04:25:47.305Z,100.00
2023-01-19T04:26:52.068Z,100.00
2023-01-19T04:27:58.461Z,100.00
2023-01-19T04:29:03.086Z,100.00
2023-01-19T04:30:10.076Z,100.00
2023-01-19T04:31:12.592Z,100.00
2023-01-19T04:32:17.605Z,100.00
2023-01-19T04:33:19.696Z,100.00
2023-01-19T04:34:24.408Z,100.00
2023-01-19T04:35:26.467Z,100.00
2023-01-19T04:36:31.407Z,100.00
2023-01-19T04:37:33.418Z,100.00
2023-01-19T04:38:38.670Z,100.00
2023-01-19T04:39:43.249Z,100.00
2023-01-19T04:40:45.302Z,100.00
2023-01-19T04:41:51.706Z,100.00
2023-01-19T04:44:52.050Z,100.00
2023-01-19T04:45:54.088Z,100.00
2023-01-19T04:46:58.741Z,100.00
2023-01-19T04:48:00.949Z,100.00
2023-01-19T04:49:05.614Z,100.00
2023-01-19T04:50:09.281Z,100.00
2023-01-19T04:51:13.951Z,100.00
2023-01-19T04:52:15.959Z,100.00
2023-01-19T04:53:20.869Z,100.00
2023-01-19T04:54:23.038Z,100.00
2023-01-19T04:55:27.960Z,100.00
2023-01-19T04:56:30.234Z,100.00
2023-01-19T04:57:35.059Z,100.00
2023-01-19T04:58:37.131Z,100.00
2023-01-19T04:59:41.998Z,100.00
2023-01-19T05:00:46.736Z,100.00
2023-01-19T05:01:51.492Z,100.00
2023-01-19T05:02:53.727Z,100.00
2023-01-19T05:04:01.127Z,100.00
2023-01-19T05:05:06.049Z,100.00
2023-01-19T05:06:10.849Z,100.00
2023-01-19T05:07:13.086Z,100.00
2023-01-19T05:08:17.840Z,100.00
2023-01-19T05:09:19.930Z,100.00
2023-01-19T05:10:24.760Z,100.00
2023-01-19T05:11:26.991Z,100.00
2023-01-19T05:12:31.672Z,100.00
2023-01-19T05:13:33.736Z,100.00
2023-01-19T05:14:38.908Z,100.00
2023-01-19T05:15:40.881Z,100.00
2023-01-19T05:16:48.144Z,100.00
2023-01-19T05:17:50.289Z,100.00
2023-01-19T05:18:54.969Z,100.00
2023-01-19T05:19:56.963Z,100.00
2023-01-19T05:21:01.576Z,100.00
2023-01-19T05:22:04.384Z,100.00
2023-01-19T05:23:09.230Z,100.00
2023-01-19T05:24:11.535Z,100.00
2023-01-19T05:25:16.241Z,100.00
2023-01-19T05:26:18.584Z,100.00
2023-01-19T05:27:23.224Z,100.00
2023-01-19T05:28:25.199Z,100.00
2023-01-19T05:29:29.813Z,100.00
2023-01-19T05:30:31.978Z,100.00
2023-01-19T05:31:37.253Z,100.00
2023-01-19T05:32:42.204Z,100.00
2023-01-19T05:33:46.841Z,100.00
2023-01-19T05:34:51.525Z,100.00
2023-01-19T05:35:54.669Z,100.00
2023-01-19T05:36:59.482Z,100.00
2023-01-19T05:38:01.952Z,100.00
2023-01-19T05:39:06.845Z,100.00
2023-01-19T05:40:10.964Z,100.00
2023-01-19T05:41:15.629Z,100.00
2023-01-19T05:42:17.749Z,100.00
2023-01-19T05:43:22.360Z,100.00
2023-01-19T05:44:27.038Z,100.00
2023-01-19T05:45:31.809Z,100.00
2023-01-19T05:46:34.470Z,100.00
2023-01-19T05:47:40.025Z,100.00
2023-01-19T05:48:47.334Z,100.00
2023-01-19T05:49:52.003Z,100.00
2023-01-19T05:50:57.779Z,100.00
2023-01-19T05:52:02.455Z,100.00
2023-01-19T05:53:04.540Z,100.00
2023-01-19T05:54:10.499Z,100.00
2023-01-19T05:55:13.346Z,100.00
2023-01-19T05:56:19.023Z,100.00
2023-01-19T05:57:21.307Z,100.00
2023-01-19T05:58:25.975Z,100.00
2023-01-19T05:59:28.058Z,100.00
2023-01-19T06:00:32.727Z,100.00
2023-01-19T06:01:37.427Z,100.00
2023-01-19T06:02:43.671Z,100.00
2023-01-19T06:03:48.992Z,100.00
2023-01-19T06:04:53.629Z,100.00
2023-01-19T06:05:58.094Z,100.00
2023-01-19T06:07:02.996Z,100.00
2023-01-19T06:08:05.661Z,100.00
2023-01-19T06:09:10.842Z,100.00
2023-01-19T06:10:13.016Z,100.00
2023-01-19T06:11:17.666Z,100.00
2023-01-19T06:12:19.805Z,100.00
2023-01-19T06:13:24.598Z,100.00
2023-01-19T06:14:26.886Z,100.00
2023-01-19T06:15:31.514Z,100.00
2023-01-19T06:16:33.661Z,100.00
2023-01-19T06:17:38.493Z,100.00
2023-01-19T06:18:43.169Z,100.00
2023-01-19T06:19:47.809Z,100.00
2023-01-19T06:20:52.767Z,100.00
2023-01-19T06:21:54.825Z,100.00
2023-01-19T06:23:00.306Z,100.00
2023-01-19T06:24:03.674Z,100.00
2023-01-19T06:25:09.216Z,100.00
2023-01-19T06:26:11.407Z,100.00
2023-01-19T06:27:16.060Z,100.00
2023-01-19T06:28:18.427Z,100.00
2023-01-19T06:29:23.217Z,100.00
2023-01-19T06:30:25.446Z,100.00
2023-01-19T06:31:30.249Z,100.00
2023-01-19T06:32:35.343Z,100.00
2023-01-19T06:33:40.031Z,100.00
2023-01-19T06:34:44.755Z,100.00
2023-01-19T06:35:51.226Z,100.00
2023-01-19T06:36:55.869Z,100.00
2023-01-19T06:37:57.887Z,100.00
2023-01-19T06:39:03.476Z,100.00
2023-01-19T06:40:07.111Z,100.00
2023-01-19T06:41:11.710Z,100.00
2023-01-19T06:42:13.828Z,100.00
2023-01-19T06:43:20.378Z,100.00
2023-01-19T06:44:26.047Z,100.00
2023-01-19T06:45:30.836Z,100.00
2023-01-19T06:46:33.044Z,100.00
2023-01-19T06:47:37.736Z,100.00
2023-01-19T06:48:39.985Z,100.00
2023-01-19T06:49:44.764Z,100.00
2023-01-19T06:50:50.203Z,100.00
2023-01-19T06:51:54.935Z,100.00
2023-01-19T06:52:57.204Z,100.00
2023-01-19T06:54:02.020Z,100.00
2023-01-19T06:55:04.918Z,100.00
2023-01-19T06:56:10.326Z,100.00
2023-01-19T06:57:12.891Z,100.00
2023-01-19T06:58:17.661Z,100.00
2023-01-19T06:59:19.684Z,100.00
2023-01-19T07:00:24.791Z,100.00
2023-01-19T07:01:29.677Z,100.00
2023-01-19T07:02:31.850Z,100.00
2023-01-19T07:03:38.755Z,100.00
2023-01-19T07:04:41.019Z,100.00
2023-01-19T07:05:45.794Z,100.00
2023-01-19T07:06:50.578Z,100.00
2023-01-19T07:07:55.444Z,100.00
2023-01-19T07:08:58.044Z,100.00
2023-01-19T07:10:02.636Z,100.00
2023-01-19T07:11:26.139Z,100.00
2023-01-19T07:12:31.360Z,100.00
2023-01-19T07:13:36.656Z,100.00
2023-01-19T07:14:38.826Z,100.00
2023-01-19T07:15:43.767Z,100.00
2023-01-19T07:16:48.474Z,100.00
2023-01-19T07:17:53.146Z,100.00
2023-01-19T07:18:55.676Z,100.00
2023-01-19T07:20:00.343Z,100.00
2023-01-19T07:21:02.368Z,100.00
2023-01-19T07:22:09.629Z,100.00
2023-01-19T07:23:11.829Z,100.00
2023-01-19T07:24:16.584Z,100.00
2023-01-19T07:25:18.631Z,100.00
2023-01-19T07:26:25.396Z,100.00
2023-01-19T07:27:28.113Z,100.00
2023-01-19T07:28:33.732Z,100.00
2023-01-19T07:29:35.802Z,100.00
2023-01-19T07:30:40.507Z,100.00
2023-01-19T07:31:45.532Z,100.00
2023-01-19T07:32:47.595Z,100.00
2023-01-19T07:33:52.167Z,100.00
2023-01-19T07:34:54.369Z,100.00
2023-01-19T07:35:58.906Z,100.00
2023-01-19T07:37:01.010Z,100.00
2023-01-19T07:38:08.395Z,100.00
2023-01-19T07:39:10.583Z,100.00
2023-01-19T07:40:15.882Z,100.00
2023-01-19T07:41:18.036Z,100.00
2023-01-19T07:42:22.817Z,100.00
2023-01-19T07:43:25.064Z,100.00
2023-01-19T07:44:29.889Z,100.00
2023-01-19T07:45:35.501Z,100.00
2023-01-19T07:46:37.572Z,100.00
2023-01-19T07:49:00.958Z,100.00
2023-01-19T07:50:05.703Z,100.00
2023-01-19T07:51:11.768Z,100.00
2023-01-19T07:52:17.331Z,100.00
2023-01-19T07:53:24.730Z,100.00
2023-01-19T07:54:26.796Z,100.00
2023-01-19T07:55:31.394Z,100.00
2023-01-19T07:56:36.055Z,100.00
2023-01-19T07:57:38.105Z,100.00
2023-01-19T07:58:42.930Z,100.00
2023-01-19T07:59:44.942Z,100.00
2023-01-19T08:00:50.497Z,100.00
2023-01-19T08:01:54.354Z,100.00
2023-01-19T08:03:02.841Z,100.00
2023-01-19T08:04:08.557Z,100.00
2023-01-19T08:05:10.774Z,100.00
2023-01-19T08:06:22.898Z,100.00
2023-01-19T08:07:27.801Z,100.00
2023-01-19T08:08:36.078Z,100.00
2023-01-19T08:09:40.713Z,100.00
2023-01-19T08:10:42.687Z,100.00
2023-01-19T08:11:47.441Z,100.00
2023-01-19T08:12:52.035Z,100.00
2023-01-19T08:13:54.073Z,100.00
2023-01-19T08:14:58.744Z,100.00
2023-01-19T08:16:00.911Z,100.00
2023-01-19T08:17:06.771Z,100.00
2023-01-19T08:18:11.587Z,100.00
2023-01-19T08:19:16.266Z,100.00
2023-01-19T08:20:18.474Z,100.00
2023-01-19T08:21:23.283Z,100.00
2023-01-19T08:22:25.422Z,100.00
2023-01-19T08:23:30.646Z,100.00
2023-01-19T08:24:38.005Z,100.00
2023-01-19T08:25:42.365Z,100.00
2023-01-19T08:26:47.040Z,100.00
2023-01-19T08:27:49.271Z,100.00
2023-01-19T08:28:54.027Z,100.00
2023-01-19T08:29:56.081Z,100.00
2023-01-19T08:31:11.100Z,100.00
2023-01-19T08:32:23.615Z,100.00
2023-01-19T08:33:25.791Z,100.00
2023-01-19T08:34:31.094Z,100.00
2023-01-19T08:35:37.213Z,100.00
2023-01-19T08:36:41.816Z,100.00
2023-01-19T08:37:43.773Z,100.00
2023-01-19T08:38:48.810Z,100.00
2023-01-19T08:39:54.064Z,100.00
2023-01-19T08:40:58.777Z,100.00
2023-01-19T08:42:03.436Z,100.00
2023-01-19T08:43:11.099Z,100.00
2023-01-19T08:44:13.337Z,100.00
2023-01-19T08:45:18.287Z,100.00
2023-01-19T08:46:23.467Z,100.00
2023-01-19T08:47:25.600Z,100.00
2023-01-19T08:48:30.387Z,100.00
2023-01-19T08:49:35.678Z,100.00
2023-01-19T08:50:37.834Z,100.00
2023-01-19T08:51:42.516Z,100.00
2023-01-19T08:52:44.603Z,100.00
2023-01-19T08:53:49.562Z,100.00
2023-01-19T08:54:56.900Z,100.00
2023-01-19T08:56:01.352Z,100.00
2023-01-19T08:57:06.102Z,100.00
2023-01-19T08:58:08.976Z,100.00
2023-01-19T08:59:14.299Z,100.00
2023-01-19T09:00:17.773Z,100.00
2023-01-19T09:01:23.151Z,100.00
2023-01-19T09:02:27.967Z,100.00
2023-01-19T09:03:32.723Z,100.00
2023-01-19T09:04:38.133Z,100.00
2023-01-19T09:05:40.965Z,100.00
2023-01-19T09:06:45.623Z,100.00
2023-01-19T09:07:48.346Z,100.00
2023-01-19T09:08:53.028Z,100.00
2023-01-19T09:10:00.326Z,100.00
2023-01-19T09:11:02.853Z,100.00
2023-01-19T09:12:07.992Z,100.00
2023-01-19T09:13:11.720Z,100.00
2023-01-19T09:14:16.357Z,100.00
2023-01-19T09:15:18.725Z,100.00
2023-01-19T09:16:23.499Z,100.00
2023-01-19T09:17:25.731Z,100.00
2023-01-19T09:18:30.361Z,100.00
2023-01-19T09:19:33.381Z,100.00
2023-01-19T09:20:39.790Z,100.00
2023-01-19T09:21:42.009Z,100.00
2023-01-19T09:22:47.719Z,100.00
2023-01-19T09:23:52.423Z,100.00
2023-01-19T09:24:54.515Z,100.00
2023-01-19T09:26:03.467Z,100.00
2023-01-19T09:27:08.124Z,100.00
2023-01-19T09:28:12.282Z,100.00
2023-01-19T09:29:16.993Z,100.00
2023-01-19T09:30:20.078Z,100.00
2023-01-19T09:31:24.880Z,100.00
2023-01-19T09:32:29.613Z,100.00
2023-01-19T09:33:34.305Z,100.00
2023-01-19T09:34:38.903Z,100.00
2023-01-19T09:35:44.953Z,100.00
2023-01-19T09:36:49.976Z,100.00
2023-01-19T09:37:52.087Z,100.00
2023-01-19T09:38:56.750Z,100.00
2023-01-19T09:39:58.999Z,100.00
2023-01-19T09:41:07.285Z,100.00
2023-01-19T09:42:21.745Z,100.00
2023-01-19T09:43:37.651Z,100.00
2023-01-19T09:44:46.384Z,100.00
2023-01-19T09:45:52.177Z,100.00
2023-01-19T09:46:56.931Z,100.00
2023-01-19T09:48:01.903Z,100.00
2023-01-19T09:49:14.203Z,100.00
2023-01-19T09:50:28.994Z,100.00
2023-01-19T09:51:39.276Z,100.00
2023-01-19T09:52:47.335Z,100.00
2023-01-19T09:53:58.583Z,100.00
2023-01-19T09:55:03.275Z,100.00
2023-01-19T09:56:11.099Z,100.00
2023-01-19T09:57:16.836Z,98.76
2023-01-19T09:58:27.232Z,97.02
2023-01-19T09:59:34.041Z,94.17
2023-01-19T10:00:36.241Z,90.41
2023-01-19T10:01:50.428Z,89.30
2023-01-19T10:02:59.831Z,88.02
2023-01-19T10:04:30.208Z,89.55
2023-01-19T10:05:41.596Z,88.88
2023-01-19T10:06:44.307Z,90.48
2023-01-19T10:08:03.722Z,81.64
2023-01-19T10:09:20.037Z,88.20
2023-01-19T10:10:27.873Z,93.36
2023-01-19T10:11:51.515Z,100.00
2023-01-19T10:13:14.695Z,100.00
2023-01-19T10:14:26.015Z,100.00
2023-01-19T10:15:41.024Z,100.00
2023-01-19T10:16:54.383Z,100.00
2023-01-19T10:18:10.779Z,100.00
2023-01-19T10:19:25.086Z,100.00
2023-01-19T10:20:33.388Z,100.00
2023-01-19T10:21:44.959Z,100.00
2023-01-19T10:22:49.694Z,100.00
2023-01-19T10:23:58.623Z,100.00
2023-01-19T10:25:06.082Z,100.00
2023-01-19T10:26:16.802Z,100.00
2023-01-19T10:27:27.349Z,100.00
2023-01-19T10:28:32.938Z,100.00
2023-01-19T10:29:40.272Z,100.00
2023-01-19T10:30:47.351Z,100.00
2023-01-19T10:31:55.405Z,100.00
2023-01-19T10:33:00.436Z,100.00
2023-01-19T10:34:06.371Z,100.00
2023-01-19T10:35:15.306Z,100.00
2023-01-19T10:36:22.338Z,100.00
2023-01-19T10:37:33.690Z,100.00
2023-01-19T10:38:36.160Z,100.00
2023-01-19T10:39:41.373Z,100.00
2023-01-19T10:40:53.580Z,100.00
2023-01-19T10:42:00.649Z,100.00
2023-01-19T10:43:45.902Z,100.00
2023-01-19T10:44:49.601Z,100.00
2023-01-19T10:45:54.321Z,100.00
2023-01-19T10:47:02.246Z,100.00
2023-01-19T10:48:07.484Z,100.00
2023-01-19T10:49:28.360Z,100.00
2023-01-19T10:50:32.384Z,100.00
2023-01-19T10:51:38.260Z,100.00
2023-01-19T10:52:44.820Z,100.00
2023-01-19T10:53:59.280Z,100.00
2023-01-19T10:55:05.641Z,100.00
2023-01-19T10:56:20.160Z,100.00
2023-01-19T10:57:31.335Z,100.00
2023-01-19T10:58:35.502Z,100.00
2023-01-19T10:59:51.609Z,100.00
2023-01-19T11:00:53.955Z,100.00
2023-01-19T11:02:08.297Z,100.00
2023-01-19T11:03:26.443Z,100.00
2023-01-19T11:04:29.362Z,100.00
2023-01-19T11:05:38.638Z,100.00
2023-01-19T11:06:43.324Z,100.00
2023-01-19T11:07:45.395Z,100.00
2023-01-19T11:08:52.877Z,100.00
2023-01-19T11:10:22.634Z,100.00
2023-01-19T11:11:27.561Z,100.00
2023-01-19T11:12:32.212Z,100.00
2023-01-19T11:13:34.923Z,100.00
2023-01-19T11:14:42.260Z,100.00
2023-01-19T11:15:50.740Z,100.00
2023-01-19T11:16:58.971Z,100.00
2023-01-19T11:18:05.552Z,100.00
2023-01-19T11:19:21.943Z,100.00
2023-01-19T11:20:30.683Z,100.00
2023-01-19T11:21:33.376Z,100.00
2023-01-19T11:22:38.376Z,100.00
2023-01-19T11:23:50.042Z,100.00
2023-01-19T11:24:54.566Z,100.00
2023-01-19T11:26:01.705Z,100.00
2023-01-19T11:27:06.704Z,100.00
2023-01-19T11:28:21.607Z,100.00
2023-01-19T11:29:28.921Z,100.00
2023-01-19T11:30:38.091Z,100.00
2023-01-19T11:31:43.224Z,100.00
2023-01-19T11:32:49.448Z,100.00
2023-01-19T11:33:53.348Z,100.00
2023-01-19T11:34:58.023Z,100.00
2023-01-19T11:36:06.104Z,100.00
2023-01-19T11:37:30.357Z,100.00
2023-01-19T11:38:35.825Z,100.00
2023-01-19T11:39:49.901Z,100.00
2023-01-19T11:40:55.071Z,100.00
2023-01-19T11:42:02.754Z,100.00
2023-01-19T11:43:05.218Z,100.00
2023-01-19T11:44:21.614Z,100.00
2023-01-19T11:45:24.117Z,100.00
2023-01-19T11:46:36.763Z,100.00
2023-01-19T11:47:43.640Z,100.00
2023-01-19T11:48:56.713Z,100.00
2023-01-19T11:50:05.599Z,100.00
2023-01-19T11:51:16.611Z,100.00
2023-01-19T11:52:28.707Z,100.00
2023-01-19T11:53:36.805Z,100.00
2023-01-19T11:54:50.373Z,100.00
2023-01-19T11:55:57.306Z,100.00
2023-01-19T11:57:03.404Z,100.00
2023-01-19T11:58:08.610Z,100.00
2023-01-19T11:59:15.659Z,100.00
2023-01-19T12:00:29.331Z,100.00
2023-01-19T12:01:39.744Z,100.00
2023-01-19T12:02:48.077Z,100.00
2023-01-19T12:03:59.572Z,100.00
2023-01-19T12:05:12.460Z,100.00
2023-01-19T12:06:21.764Z,100.00
2023-01-19T12:07:31.719Z,100.00
2023-01-19T12:08:39.584Z,100.00
2023-01-19T12:09:47.819Z,100.00
2023-01-19T12:10:55.936Z,100.00
2023-01-19T12:12:04.291Z,100.00
2023-01-19T12:13:08.978Z,100.00
2023-01-19T12:14:21.998Z,100.00
2023-01-19T12:15:35.849Z,100.00
2023-01-19T12:16:45.991Z,100.00
2023-01-19T12:17:51.305Z,100.00
2023-01-19T12:19:02.266Z,100.00
2023-01-19T12:20:16.817Z,100.00
2023-01-19T12:21:22.019Z,100.00
2023-01-19T12:22:29.070Z,100.00
2023-01-19T12:23:47.447Z,100.00
2023-01-19T12:24:57.452Z,100.00
2023-01-19T12:26:24.702Z,100.00
2023-01-19T12:27:41.970Z,100.00
2023-01-19T12:28:50.592Z,100.00
2023-01-19T12:29:57.675Z,100.00
2023-01-19T12:31:01.102Z,100.00
2023-01-19T12:32:23.038Z,100.00
2023-01-19T12:33:34.438Z,100.00
2023-01-19T12:34:46.787Z,100.00
2023-01-19T12:35:57.321Z,100.00
2023-01-19T12:37:06.887Z,100.00
2023-01-19T12:38:36.347Z,100.00
2023-01-19T12:39:51.162Z,100.00
2023-01-19T12:41:16.678Z,100.00
2023-01-19T12:42:21.615Z,100.00
2023-01-19T12:43:24.688Z,100.00
2023-01-19T12:44:34.456Z,100.00
2023-01-19T12:45:40.695Z,100.00
2023-01-19T12:46:46.019Z,100.00
2023-01-19T12:47:57.161Z,100.00
2023-01-19T12:49:06.561Z,100.00
2023-01-19T12:50:20.489Z,100.00
2023-01-19T12:51:23.787Z,100.00
2023-01-19T12:52:34.341Z,100.00
2023-01-19T12:53:39.309Z,100.00
2023-01-19T12:54:50.678Z,100.00
2023-01-19T12:56:02.614Z,100.00
2023-01-19T12:57:13.285Z,100.00
2023-01-19T12:58:20.574Z,100.00
2023-01-19T12:59:27.012Z,100.00
2023-01-19T13:00:35.128Z,100.00
2023-01-19T13:01:40.023Z,100.00
2023-01-19T13:02:44.783Z,100.00
2023-01-19T13:04:03.696Z,100.00
2023-01-19T13:05:27.890Z,100.00
2023-01-19T13:07:05.892Z,100.00
2023-01-19T13:08:26.759Z,100.00
2023-01-19T13:09:30.500Z,100.00
2023-01-19T13:11:10.869Z,100.00
2023-01-19T13:12:26.813Z,100.00
2023-01-19T13:13:30.501Z,100.00
2023-01-19T13:14:39.645Z,100.00
2023-01-19T13:15:42.728Z,100.00
2023-01-19T13:17:05.166Z,100.00
2023-01-19T13:18:11.749Z,100.00
2023-01-19T13:19:31.259Z,100.00
2023-01-19T13:20:47.228Z,100.00
2023-01-19T13:21:50.225Z,100.00
2023-01-19T13:23:26.383Z,100.00
2023-01-19T13:25:06.078Z,100.00
2023-01-19T13:26:17.584Z,100.00
2023-01-19T13:27:19.991Z,100.00
2023-01-19T13:28:33.516Z,100.00
2023-01-19T13:29:40.646Z,100.00
2023-01-19T13:30:53.765Z,100.00
2023-01-19T13:32:02.833Z,100.00
2023-01-19T13:33:17.180Z,100.00
2023-01-19T13:34:28.412Z,100.00
2023-01-19T13:35:33.303Z,100.00
2023-01-19T13:36:41.169Z,100.00
2023-01-19T13:37:45.740Z,100.00
2023-01-19T13:38:51.469Z,100.00
2023-01-19T13:39:57.698Z,100.00
2023-01-19T13:41:05.627Z,100.00
2023-01-19T13:42:17.787Z,100.00
2023-01-19T13:43:25.198Z,100.00
2023-01-19T13:44:32.647Z,100.00
2023-01-19T13:45:38.249Z,100.00
2023-01-19T13:46:43.800Z,100.00
2023-01-19T13:47:48.557Z,100.00
2023-01-19T13:48:59.232Z,100.00
2023-01-19T13:50:06.671Z,100.00
2023-01-19T13:51:20.688Z,100.00
2023-01-19T13:52:26.806Z,100.00
2023-01-19T13:53:32.529Z,100.00
2023-01-19T13:54:34.667Z,100.00
2023-01-19T13:55:39.426Z,100.00
2023-01-19T13:56:50.176Z,100.00
2023-01-19T13:57:53.094Z,100.00
2023-01-19T13:59:09.946Z,100.00
2023-01-19T14:00:21.133Z,100.00
2023-01-19T14:01:28.906Z,100.00
2023-01-19T14:02:34.151Z,100.00
2023-01-19T14:03:38.894Z,100.00
2023-01-19T14:04:43.637Z,100.00
2023-01-19T14:05:51.399Z,100.00